sensor_id;sensor_type;location;lat;lon;timestamp;P1;durP1;ratioP1;P2;durP2;ratioP2
71878;SDS011;59755;43.834;4.364;2022-07-29T00:00:30;6.95;;;2.53;;
71878;SDS011;59755;43.834;4.364;2022-07-29T00:02:56;7.47;;;2.40;;
71878;SDS011;59755;43.834;4.364;2022-07-29T00:05:22;6.55;;;2.30;;
71878;SDS011;59755;43.834;4.364;2022-07-29T00:07:48;6.68;;;2.50;;
71878;SDS011;59755;43.834;4.364;2022-07-29T00:10:14;6.60;;;2.50;;
71878;SDS011;59755;43.834;4.364;2022-07-29T00:12:40;7.15;;;2.78;;
71878;SDS011;59755;43.834;4.364;2022-07-29T00:15:06;6.20;;;2.45;;
71878;SDS011;59755;43.834;4.364;2022-07-29T00:17:33;6.05;;;2.60;;
71878;SDS011;59755;43.834;4.364;2022-07-29T00:19:59;5.45;;;2.50;;
71878;SDS011;59755;43.834;4.364;2022-07-29T00:22:25;6.35;;;2.30;;
71878;SDS011;59755;43.834;4.364;2022-07-29T00:24:51;6.95;;;2.65;;
71878;SDS011;59755;43.834;4.364;2022-07-29T00:27:17;6.00;;;2.10;;
71878;SDS011;59755;43.834;4.364;2022-07-29T00:29:43;7.97;;;2.38;;
71878;SDS011;59755;43.834;4.364;2022-07-29T00:32:10;7.38;;;2.42;;
71878;SDS011;59755;43.834;4.364;2022-07-29T00:34:36;7.07;;;2.30;;
71878;SDS011;59755;43.834;4.364;2022-07-29T00:37:21;6.00;;;2.28;;
71878;SDS011;59755;43.834;4.364;2022-07-29T00:39:47;5.65;;;2.28;;
71878;SDS011;59755;43.834;4.364;2022-07-29T00:42:13;5.47;;;2.50;;
71878;SDS011;59755;43.834;4.364;2022-07-29T00:44:40;5.70;;;2.03;;
71878;SDS011;59755;43.834;4.364;2022-07-29T00:47:06;5.57;;;2.17;;
71878;SDS011;59755;43.834;4.364;2022-07-29T00:49:33;4.97;;;2.47;;
71878;SDS011;59755;43.834;4.364;2022-07-29T00:52:02;6.75;;;2.40;;
71878;SDS011;59755;43.834;4.364;2022-07-29T00:54:29;12.13;;;2.60;;
71878;SDS011;59755;43.834;4.364;2022-07-29T00:56:56;6.57;;;2.40;;
71878;SDS011;59755;43.834;4.364;2022-07-29T00:59:23;5.20;;;2.47;;
71878;SDS011;59755;43.834;4.364;2022-07-29T01:01:49;5.80;;;2.20;;
71878;SDS011;59755;43.834;4.364;2022-07-29T01:04:15;6.03;;;2.30;;
71878;SDS011;59755;43.834;4.364;2022-07-29T01:06:42;5.75;;;2.53;;
71878;SDS011;59755;43.834;4.364;2022-07-29T01:09:09;6.18;;;2.50;;
71878;SDS011;59755;43.834;4.364;2022-07-29T01:11:35;5.93;;;2.30;;
71878;SDS011;59755;43.834;4.364;2022-07-29T01:14:02;6.28;;;2.55;;
71878;SDS011;59755;43.834;4.364;2022-07-29T01:16:30;7.57;;;2.70;;
71878;SDS011;59755;43.834;4.364;2022-07-29T01:19:00;6.22;;;2.50;;
71878;SDS011;59755;43.834;4.364;2022-07-29T01:22:07;6.65;;;2.20;;
71878;SDS011;59755;43.834;4.364;2022-07-29T01:29:54;6.45;;;2.50;;
71878;SDS011;59755;43.834;4.364;2022-07-29T01:32:22;6.93;;;2.55;;
71878;SDS011;59755;43.834;4.364;2022-07-29T01:34:54;6.93;;;2.20;;
71878;SDS011;59755;43.834;4.364;2022-07-29T01:37:26;5.75;;;2.65;;
71878;SDS011;59755;43.834;4.364;2022-07-29T01:39:56;7.35;;;3.00;;
71878;SDS011;59755;43.834;4.364;2022-07-29T01:42:25;5.80;;;2.78;;
71878;SDS011;59755;43.834;4.364;2022-07-29T01:45:10;6.32;;;2.35;;
71878;SDS011;59755;43.834;4.364;2022-07-29T01:51:25;5.30;;;2.60;;
71878;SDS011;59755;43.834;4.364;2022-07-29T01:53:37;6.20;;;2.55;;
71878;SDS011;59755;43.834;4.364;2022-07-29T01:56:04;7.18;;;2.70;;
71878;SDS011;59755;43.834;4.364;2022-07-29T01:58:32;6.43;;;2.30;;
71878;SDS011;59755;43.834;4.364;2022-07-29T02:00:58;6.93;;;2.20;;
71878;SDS011;59755;43.834;4.364;2022-07-29T02:03:25;6.80;;;2.53;;
71878;SDS011;59755;43.834;4.364;2022-07-29T02:05:52;5.57;;;2.60;;
71878;SDS011;59755;43.834;4.364;2022-07-29T02:08:19;9.05;;;2.90;;
71878;SDS011;59755;43.834;4.364;2022-07-29T02:10:46;5.07;;;2.58;;
71878;SDS011;59755;43.834;4.364;2022-07-29T02:13:13;6.05;;;2.50;;
71878;SDS011;59755;43.834;4.364;2022-07-29T02:15:39;4.57;;;2.08;;
71878;SDS011;59755;43.834;4.364;2022-07-29T02:18:07;5.53;;;2.58;;
71878;SDS011;59755;43.834;4.364;2022-07-29T02:20:35;5.28;;;2.30;;
71878;SDS011;59755;43.834;4.364;2022-07-29T02:23:01;7.38;;;2.67;;
71878;SDS011;59755;43.834;4.364;2022-07-29T02:25:28;5.50;;;2.30;;
71878;SDS011;59755;43.834;4.364;2022-07-29T02:27:54;5.43;;;2.70;;
71878;SDS011;59755;43.834;4.364;2022-07-29T02:30:21;5.45;;;2.53;;
71878;SDS011;59755;43.834;4.364;2022-07-29T02:32:48;5.20;;;2.35;;
71878;SDS011;59755;43.834;4.364;2022-07-29T02:35:15;7.15;;;3.00;;
71878;SDS011;59755;43.834;4.364;2022-07-29T02:37:42;5.65;;;2.60;;
71878;SDS011;59755;43.834;4.364;2022-07-29T02:40:09;6.78;;;2.45;;
71878;SDS011;59755;43.834;4.364;2022-07-29T02:42:37;5.93;;;2.70;;
71878;SDS011;59755;43.834;4.364;2022-07-29T02:45:04;5.75;;;2.70;;
71878;SDS011;59755;43.834;4.364;2022-07-29T02:47:40;5.38;;;2.63;;
71878;SDS011;59755;43.834;4.364;2022-07-29T02:50:21;5.70;;;2.50;;
71878;SDS011;59755;43.834;4.364;2022-07-29T02:52:54;6.53;;;2.50;;
71878;SDS011;59755;43.834;4.364;2022-07-29T02:55:28;6.55;;;2.55;;
71878;SDS011;59755;43.834;4.364;2022-07-29T02:57:59;5.90;;;2.53;;
71878;SDS011;59755;43.834;4.364;2022-07-29T03:00:27;6.43;;;2.70;;
71878;SDS011;59755;43.834;4.364;2022-07-29T03:02:54;5.18;;;2.30;;
71878;SDS011;59755;43.834;4.364;2022-07-29T03:05:21;8.35;;;2.80;;
71878;SDS011;59755;43.834;4.364;2022-07-29T03:07:51;5.43;;;2.65;;
71878;SDS011;59755;43.834;4.364;2022-07-29T03:10:17;6.03;;;2.63;;
71878;SDS011;59755;43.834;4.364;2022-07-29T03:12:43;6.03;;;2.60;;
71878;SDS011;59755;43.834;4.364;2022-07-29T03:15:10;6.95;;;2.50;;
71878;SDS011;59755;43.834;4.364;2022-07-29T03:17:36;7.25;;;2.67;;
71878;SDS011;59755;43.834;4.364;2022-07-29T03:20:03;6.28;;;2.30;;
71878;SDS011;59755;43.834;4.364;2022-07-29T03:22:29;4.93;;;2.40;;
71878;SDS011;59755;43.834;4.364;2022-07-29T03:24:55;5.75;;;2.55;;
71878;SDS011;59755;43.834;4.364;2022-07-29T03:27:21;7.22;;;2.40;;
71878;SDS011;59755;43.834;4.364;2022-07-29T03:29:48;8.68;;;2.60;;
71878;SDS011;59755;43.834;4.364;2022-07-29T03:32:14;5.63;;;2.50;;
71878;SDS011;59755;43.834;4.364;2022-07-29T03:34:40;7.07;;;2.50;;
71878;SDS011;59755;43.834;4.364;2022-07-29T03:37:06;5.82;;;2.45;;
71878;SDS011;59755;43.834;4.364;2022-07-29T03:39:34;5.35;;;2.53;;
71878;SDS011;59755;43.834;4.364;2022-07-29T03:42:00;6.32;;;2.72;;
71878;SDS011;59755;43.834;4.364;2022-07-29T03:44:27;6.90;;;2.83;;
71878;SDS011;59755;43.834;4.364;2022-07-29T03:46:54;6.38;;;2.45;;
71878;SDS011;59755;43.834;4.364;2022-07-29T03:49:21;4.53;;;2.30;;
71878;SDS011;59755;43.834;4.364;2022-07-29T03:51:49;5.55;;;2.47;;
71878;SDS011;59755;43.834;4.364;2022-07-29T03:54:15;6.97;;;2.70;;
71878;SDS011;59755;43.834;4.364;2022-07-29T03:56:42;6.22;;;2.50;;
71878;SDS011;59755;43.834;4.364;2022-07-29T03:59:11;7.13;;;2.65;;
71878;SDS011;59755;43.834;4.364;2022-07-29T04:01:38;5.95;;;2.40;;
71878;SDS011;59755;43.834;4.364;2022-07-29T04:04:04;4.88;;;2.35;;
71878;SDS011;59755;43.834;4.364;2022-07-29T04:06:40;6.28;;;2.58;;
71878;SDS011;59755;43.834;4.364;2022-07-29T04:09:07;7.28;;;2.50;;
71878;SDS011;59755;43.834;4.364;2022-07-29T04:11:33;7.90;;;2.40;;
71878;SDS011;59755;43.834;4.364;2022-07-29T04:14:00;6.88;;;2.55;;
71878;SDS011;59755;43.834;4.364;2022-07-29T04:16:26;5.32;;;2.42;;
71878;SDS011;59755;43.834;4.364;2022-07-29T04:18:52;5.05;;;2.33;;
71878;SDS011;59755;43.834;4.364;2022-07-29T04:21:18;9.10;;;2.53;;
71878;SDS011;59755;43.834;4.364;2022-07-29T04:23:44;5.82;;;2.15;;
71878;SDS011;59755;43.834;4.364;2022-07-29T04:26:14;6.55;;;2.50;;
71878;SDS011;59755;43.834;4.364;2022-07-29T04:28:40;7.68;;;2.95;;
71878;SDS011;59755;43.834;4.364;2022-07-29T04:31:07;5.80;;;2.42;;
71878;SDS011;59755;43.834;4.364;2022-07-29T04:33:33;8.00;;;2.35;;
71878;SDS011;59755;43.834;4.364;2022-07-29T04:36:00;4.93;;;2.67;;
71878;SDS011;59755;43.834;4.364;2022-07-29T04:38:26;5.05;;;2.40;;
71878;SDS011;59755;43.834;4.364;2022-07-29T04:40:55;6.32;;;2.90;;
71878;SDS011;59755;43.834;4.364;2022-07-29T04:43:21;8.25;;;2.72;;
71878;SDS011;59755;43.834;4.364;2022-07-29T04:45:47;7.38;;;2.50;;
71878;SDS011;59755;43.834;4.364;2022-07-29T04:48:13;6.57;;;2.50;;
71878;SDS011;59755;43.834;4.364;2022-07-29T04:50:39;6.88;;;2.85;;
71878;SDS011;59755;43.834;4.364;2022-07-29T04:53:06;5.82;;;2.63;;
71878;SDS011;59755;43.834;4.364;2022-07-29T04:55:32;6.78;;;2.42;;
71878;SDS011;59755;43.834;4.364;2022-07-29T04:57:58;5.78;;;2.30;;
71878;SDS011;59755;43.834;4.364;2022-07-29T05:00:25;5.72;;;2.50;;
71878;SDS011;59755;43.834;4.364;2022-07-29T05:02:51;6.25;;;2.50;;
71878;SDS011;59755;43.834;4.364;2022-07-29T05:05:17;7.75;;;2.60;;
71878;SDS011;59755;43.834;4.364;2022-07-29T05:07:43;7.68;;;2.60;;
71878;SDS011;59755;43.834;4.364;2022-07-29T05:10:09;11.98;;;2.92;;
71878;SDS011;59755;43.834;4.364;2022-07-29T05:12:36;8.63;;;3.30;;
71878;SDS011;59755;43.834;4.364;2022-07-29T05:15:03;7.85;;;3.00;;
71878;SDS011;59755;43.834;4.364;2022-07-29T05:17:29;9.25;;;2.78;;
71878;SDS011;59755;43.834;4.364;2022-07-29T05:19:55;8.77;;;2.95;;
71878;SDS011;59755;43.834;4.364;2022-07-29T05:22:21;9.82;;;3.05;;
71878;SDS011;59755;43.834;4.364;2022-07-29T05:24:48;8.80;;;3.00;;
71878;SDS011;59755;43.834;4.364;2022-07-29T05:27:14;7.55;;;2.88;;
71878;SDS011;59755;43.834;4.364;2022-07-29T05:29:40;8.57;;;3.15;;
71878;SDS011;59755;43.834;4.364;2022-07-29T05:32:06;8.95;;;2.80;;
71878;SDS011;59755;43.834;4.364;2022-07-29T05:34:32;10.05;;;2.78;;
71878;SDS011;59755;43.834;4.364;2022-07-29T05:36:58;11.23;;;3.35;;
71878;SDS011;59755;43.834;4.364;2022-07-29T05:39:25;10.10;;;3.08;;
71878;SDS011;59755;43.834;4.364;2022-07-29T05:41:51;11.75;;;2.90;;
71878;SDS011;59755;43.834;4.364;2022-07-29T05:44:17;9.43;;;3.00;;
71878;SDS011;59755;43.834;4.364;2022-07-29T05:46:43;7.88;;;2.90;;
71878;SDS011;59755;43.834;4.364;2022-07-29T05:49:09;6.05;;;2.63;;
71878;SDS011;59755;43.834;4.364;2022-07-29T05:51:35;9.55;;;2.78;;
71878;SDS011;59755;43.834;4.364;2022-07-29T05:54:01;7.25;;;3.00;;
71878;SDS011;59755;43.834;4.364;2022-07-29T05:56:27;7.30;;;2.38;;
71878;SDS011;59755;43.834;4.364;2022-07-29T05:58:53;10.48;;;3.08;;
71878;SDS011;59755;43.834;4.364;2022-07-29T06:01:19;11.68;;;3.08;;
71878;SDS011;59755;43.834;4.364;2022-07-29T06:03:46;8.00;;;2.58;;
71878;SDS011;59755;43.834;4.364;2022-07-29T06:06:12;8.27;;;3.35;;
71878;SDS011;59755;43.834;4.364;2022-07-29T06:08:38;9.15;;;2.67;;
71878;SDS011;59755;43.834;4.364;2022-07-29T06:11:05;9.35;;;3.05;;
71878;SDS011;59755;43.834;4.364;2022-07-29T06:13:32;30.88;;;6.78;;
71878;SDS011;59755;43.834;4.364;2022-07-29T06:15:58;17.15;;;4.80;;
71878;SDS011;59755;43.834;4.364;2022-07-29T06:18:24;10.20;;;3.55;;
71878;SDS011;59755;43.834;4.364;2022-07-29T06:20:50;11.60;;;3.85;;
71878;SDS011;59755;43.834;4.364;2022-07-29T06:23:17;9.30;;;3.33;;
71878;SDS011;59755;43.834;4.364;2022-07-29T06:25:43;7.63;;;3.15;;
71878;SDS011;59755;43.834;4.364;2022-07-29T06:28:09;7.63;;;3.72;;
71878;SDS011;59755;43.834;4.364;2022-07-29T06:30:35;9.20;;;3.67;;
71878;SDS011;59755;43.834;4.364;2022-07-29T06:33:01;11.23;;;3.92;;
71878;SDS011;59755;43.834;4.364;2022-07-29T06:35:28;11.75;;;3.95;;
71878;SDS011;59755;43.834;4.364;2022-07-29T06:37:54;10.75;;;3.38;;
71878;SDS011;59755;43.834;4.364;2022-07-29T06:40:20;6.80;;;3.67;;
71878;SDS011;59755;43.834;4.364;2022-07-29T06:43:05;7.78;;;3.95;;
71878;SDS011;59755;43.834;4.364;2022-07-29T06:45:33;11.88;;;4.25;;
71878;SDS011;59755;43.834;4.364;2022-07-29T06:47:59;10.27;;;3.92;;
71878;SDS011;59755;43.834;4.364;2022-07-29T06:50:25;10.30;;;4.20;;
71878;SDS011;59755;43.834;4.364;2022-07-29T06:52:51;14.48;;;4.63;;
71878;SDS011;59755;43.834;4.364;2022-07-29T06:55:17;8.88;;;3.75;;
71878;SDS011;59755;43.834;4.364;2022-07-29T06:57:44;9.10;;;3.72;;
71878;SDS011;59755;43.834;4.364;2022-07-29T07:00:11;13.45;;;4.32;;
71878;SDS011;59755;43.834;4.364;2022-07-29T07:02:37;7.25;;;3.90;;
71878;SDS011;59755;43.834;4.364;2022-07-29T07:05:03;10.30;;;4.60;;
71878;SDS011;59755;43.834;4.364;2022-07-29T07:07:30;10.07;;;4.32;;
71878;SDS011;59755;43.834;4.364;2022-07-29T07:09:56;8.52;;;4.57;;
71878;SDS011;59755;43.834;4.364;2022-07-29T07:12:23;8.05;;;4.32;;
71878;SDS011;59755;43.834;4.364;2022-07-29T07:14:49;8.95;;;4.28;;
71878;SDS011;59755;43.834;4.364;2022-07-29T07:17:15;10.10;;;4.40;;
71878;SDS011;59755;43.834;4.364;2022-07-29T07:19:41;9.07;;;4.43;;
71878;SDS011;59755;43.834;4.364;2022-07-29T07:22:07;7.72;;;3.65;;
71878;SDS011;59755;43.834;4.364;2022-07-29T07:24:33;7.80;;;4.25;;
71878;SDS011;59755;43.834;4.364;2022-07-29T07:26:59;8.93;;;4.90;;
71878;SDS011;59755;43.834;4.364;2022-07-29T07:29:25;11.45;;;4.45;;
71878;SDS011;59755;43.834;4.364;2022-07-29T07:31:51;9.20;;;4.35;;
71878;SDS011;59755;43.834;4.364;2022-07-29T07:34:17;10.45;;;4.40;;
71878;SDS011;59755;43.834;4.364;2022-07-29T07:36:43;11.02;;;4.78;;
71878;SDS011;59755;43.834;4.364;2022-07-29T07:39:09;9.50;;;4.53;;
71878;SDS011;59755;43.834;4.364;2022-07-29T07:41:35;10.15;;;4.28;;
71878;SDS011;59755;43.834;4.364;2022-07-29T07:44:01;8.05;;;4.30;;
71878;SDS011;59755;43.834;4.364;2022-07-29T07:46:27;10.27;;;4.60;;
71878;SDS011;59755;43.834;4.364;2022-07-29T07:48:54;8.43;;;4.82;;
71878;SDS011;59755;43.834;4.364;2022-07-29T07:51:20;9.23;;;4.50;;
71878;SDS011;59755;43.834;4.364;2022-07-29T07:53:46;11.98;;;5.15;;
71878;SDS011;59755;43.834;4.364;2022-07-29T07:56:15;10.63;;;4.97;;
71878;SDS011;59755;43.834;4.364;2022-07-29T07:58:41;11.50;;;5.65;;
71878;SDS011;59755;43.834;4.364;2022-07-29T08:01:08;10.93;;;5.00;;
71878;SDS011;59755;43.834;4.364;2022-07-29T08:03:34;8.65;;;4.88;;
71878;SDS011;59755;43.834;4.364;2022-07-29T08:06:00;9.25;;;5.50;;
71878;SDS011;59755;43.834;4.364;2022-07-29T08:08:26;11.50;;;5.20;;
71878;SDS011;59755;43.834;4.364;2022-07-29T08:10:52;8.55;;;4.60;;
71878;SDS011;59755;43.834;4.364;2022-07-29T08:13:20;11.98;;;5.25;;
71878;SDS011;59755;43.834;4.364;2022-07-29T08:15:47;11.15;;;5.60;;
71878;SDS011;59755;43.834;4.364;2022-07-29T08:18:22;7.97;;;5.00;;
71878;SDS011;59755;43.834;4.364;2022-07-29T08:20:48;12.43;;;6.00;;
71878;SDS011;59755;43.834;4.364;2022-07-29T08:23:14;13.68;;;6.30;;
71878;SDS011;59755;43.834;4.364;2022-07-29T08:25:40;8.80;;;5.35;;
71878;SDS011;59755;43.834;4.364;2022-07-29T08:28:06;10.50;;;6.18;;
71878;SDS011;59755;43.834;4.364;2022-07-29T08:30:33;10.27;;;5.70;;
71878;SDS011;59755;43.834;4.364;2022-07-29T08:33:00;8.30;;;5.32;;
71878;SDS011;59755;43.834;4.364;2022-07-29T08:35:26;12.35;;;6.07;;
71878;SDS011;59755;43.834;4.364;2022-07-29T08:37:52;9.43;;;5.18;;
71878;SDS011;59755;43.834;4.364;2022-07-29T08:40:19;8.07;;;4.80;;
71878;SDS011;59755;43.834;4.364;2022-07-29T08:42:49;7.78;;;4.35;;
71878;SDS011;59755;43.834;4.364;2022-07-29T08:45:15;8.63;;;4.93;;
71878;SDS011;59755;43.834;4.364;2022-07-29T08:47:43;11.98;;;5.70;;
71878;SDS011;59755;43.834;4.364;2022-07-29T08:50:10;9.77;;;4.68;;
71878;SDS011;59755;43.834;4.364;2022-07-29T08:52:38;8.15;;;4.75;;
71878;SDS011;59755;43.834;4.364;2022-07-29T08:55:05;8.23;;;4.90;;
71878;SDS011;59755;43.834;4.364;2022-07-29T08:57:32;8.90;;;4.70;;
71878;SDS011;59755;43.834;4.364;2022-07-29T09:00:00;7.40;;;4.70;;
71878;SDS011;59755;43.834;4.364;2022-07-29T09:02:27;10.25;;;4.63;;
71878;SDS011;59755;43.834;4.364;2022-07-29T09:04:54;9.02;;;4.45;;
71878;SDS011;59755;43.834;4.364;2022-07-29T09:07:21;7.30;;;4.70;;
71878;SDS011;59755;43.834;4.364;2022-07-29T09:09:47;8.25;;;4.57;;
71878;SDS011;59755;43.834;4.364;2022-07-29T09:12:13;6.78;;;4.32;;
71878;SDS011;59755;43.834;4.364;2022-07-29T09:14:40;11.07;;;4.70;;
71878;SDS011;59755;43.834;4.364;2022-07-29T09:17:07;9.05;;;4.70;;
71878;SDS011;59755;43.834;4.364;2022-07-29T09:19:34;8.23;;;4.63;;
71878;SDS011;59755;43.834;4.364;2022-07-29T09:22:01;7.28;;;4.38;;
71878;SDS011;59755;43.834;4.364;2022-07-29T09:24:48;8.95;;;4.57;;
71878;SDS011;59755;43.834;4.364;2022-07-29T09:29:46;6.82;;;4.35;;
71878;SDS011;59755;43.834;4.364;2022-07-29T09:32:12;9.10;;;3.90;;
71878;SDS011;59755;43.834;4.364;2022-07-29T09:34:38;7.63;;;4.18;;
71878;SDS011;59755;43.834;4.364;2022-07-29T09:37:04;6.38;;;4.20;;
71878;SDS011;59755;43.834;4.364;2022-07-29T09:39:31;8.70;;;4.30;;
71878;SDS011;59755;43.834;4.364;2022-07-29T09:41:58;7.50;;;3.92;;
71878;SDS011;59755;43.834;4.364;2022-07-29T09:44:25;7.88;;;4.35;;
71878;SDS011;59755;43.834;4.364;2022-07-29T09:49:20;7.68;;;4.40;;
71878;SDS011;59755;43.834;4.364;2022-07-29T09:51:46;9.63;;;4.43;;
71878;SDS011;59755;43.834;4.364;2022-07-29T09:54:25;7.05;;;4.68;;
71878;SDS011;59755;43.834;4.364;2022-07-29T09:56:52;9.30;;;4.70;;
71878;SDS011;59755;43.834;4.364;2022-07-29T09:59:18;7.55;;;4.95;;
71878;SDS011;59755;43.834;4.364;2022-07-29T10:01:51;10.15;;;5.43;;
71878;SDS011;59755;43.834;4.364;2022-07-29T10:04:17;8.45;;;4.97;;
71878;SDS011;59755;43.834;4.364;2022-07-29T10:06:59;8.52;;;4.90;;
71878;SDS011;59755;43.834;4.364;2022-07-29T10:09:25;9.57;;;4.80;;
71878;SDS011;59755;43.834;4.364;2022-07-29T10:14:34;8.02;;;4.97;;
71878;SDS011;59755;43.834;4.364;2022-07-29T10:17:01;11.18;;;5.55;;
71878;SDS011;59755;43.834;4.364;2022-07-29T10:19:28;9.48;;;5.20;;
71878;SDS011;59755;43.834;4.364;2022-07-29T10:21:56;8.48;;;5.07;;
71878;SDS011;59755;43.834;4.364;2022-07-29T10:24:23;7.72;;;5.15;;
71878;SDS011;59755;43.834;4.364;2022-07-29T10:26:49;8.45;;;5.20;;
71878;SDS011;59755;43.834;4.364;2022-07-29T10:29:16;9.73;;;5.80;;
71878;SDS011;59755;43.834;4.364;2022-07-29T10:34:47;9.88;;;4.82;;
71878;SDS011;59755;43.834;4.364;2022-07-29T10:37:31;8.38;;;4.95;;
71878;SDS011;59755;43.834;4.364;2022-07-29T10:40:10;6.88;;;4.70;;
71878;SDS011;59755;43.834;4.364;2022-07-29T10:42:57;10.23;;;5.05;;
71878;SDS011;59755;43.834;4.364;2022-07-29T10:45:28;7.82;;;5.15;;
71878;SDS011;59755;43.834;4.364;2022-07-29T10:48:04;10.38;;;5.90;;
71878;SDS011;59755;43.834;4.364;2022-07-29T10:50:51;9.27;;;5.10;;
71878;SDS011;59755;43.834;4.364;2022-07-29T10:53:18;7.00;;;4.95;;
71878;SDS011;59755;43.834;4.364;2022-07-29T10:55:44;9.07;;;4.60;;
71878;SDS011;59755;43.834;4.364;2022-07-29T10:58:20;6.88;;;4.22;;
71878;SDS011;59755;43.834;4.364;2022-07-29T11:00:48;7.30;;;4.40;;
71878;SDS011;59755;43.834;4.364;2022-07-29T11:05:59;8.68;;;4.43;;
71878;SDS011;59755;43.834;4.364;2022-07-29T11:08:25;6.57;;;4.20;;
71878;SDS011;59755;43.834;4.364;2022-07-29T11:10:52;8.02;;;4.50;;
71878;SDS011;59755;43.834;4.364;2022-07-29T11:16:03;7.38;;;4.55;;
71878;SDS011;59755;43.834;4.364;2022-07-29T11:18:30;7.22;;;4.13;;
71878;SDS011;59755;43.834;4.364;2022-07-29T11:20:56;6.45;;;4.05;;
71878;SDS011;59755;43.834;4.364;2022-07-29T11:23:31;7.35;;;4.50;;
71878;SDS011;59755;43.834;4.364;2022-07-29T11:26:19;6.13;;;3.88;;
71878;SDS011;59755;43.834;4.364;2022-07-29T11:34:18;6.72;;;4.00;;
71878;SDS011;59755;43.834;4.364;2022-07-29T11:37:30;6.50;;;3.60;;
71878;SDS011;59755;43.834;4.364;2022-07-29T11:39:31;6.72;;;4.03;;
71878;SDS011;59755;43.834;4.364;2022-07-29T11:47:30;6.38;;;3.55;;
71878;SDS011;59755;43.834;4.364;2022-07-29T11:49:56;6.80;;;3.90;;
71878;SDS011;59755;43.834;4.364;2022-07-29T11:52:23;5.90;;;3.70;;
71878;SDS011;59755;43.834;4.364;2022-07-29T11:54:50;7.90;;;4.05;;
71878;SDS011;59755;43.834;4.364;2022-07-29T11:57:17;5.55;;;3.58;;
71878;SDS011;59755;43.834;4.364;2022-07-29T11:59:44;5.75;;;3.67;;
71878;SDS011;59755;43.834;4.364;2022-07-29T12:02:10;6.45;;;3.72;;
71878;SDS011;59755;43.834;4.364;2022-07-29T12:04:49;6.10;;;3.40;;
71878;SDS011;59755;43.834;4.364;2022-07-29T12:07:15;5.95;;;3.40;;
71878;SDS011;59755;43.834;4.364;2022-07-29T12:09:50;5.78;;;3.70;;
71878;SDS011;59755;43.834;4.364;2022-07-29T12:12:17;6.13;;;3.60;;
71878;SDS011;59755;43.834;4.364;2022-07-29T12:14:43;6.05;;;3.60;;
71878;SDS011;59755;43.834;4.364;2022-07-29T12:17:29;5.47;;;3.70;;
71878;SDS011;59755;43.834;4.364;2022-07-29T12:19:58;5.70;;;3.50;;
71878;SDS011;59755;43.834;4.364;2022-07-29T12:22:28;6.13;;;3.50;;
71878;SDS011;59755;43.834;4.364;2022-07-29T12:24:55;5.50;;;3.60;;
71878;SDS011;59755;43.834;4.364;2022-07-29T12:27:21;7.03;;;4.20;;
71878;SDS011;59755;43.834;4.364;2022-07-29T12:30:03;8.00;;;4.10;;
71878;SDS011;59755;43.834;4.364;2022-07-29T12:35:25;6.68;;;3.90;;
71878;SDS011;59755;43.834;4.364;2022-07-29T12:37:51;5.65;;;3.47;;
71878;SDS011;59755;43.834;4.364;2022-07-29T12:40:18;6.38;;;3.30;;
71878;SDS011;59755;43.834;4.364;2022-07-29T12:43:04;6.47;;;3.53;;
71878;SDS011;59755;43.834;4.364;2022-07-29T12:45:32;5.70;;;4.13;;
71878;SDS011;59755;43.834;4.364;2022-07-29T12:47:58;6.60;;;4.10;;
71878;SDS011;59755;43.834;4.364;2022-07-29T12:50:24;6.70;;;4.30;;
71878;SDS011;59755;43.834;4.364;2022-07-29T12:52:51;7.10;;;3.85;;
71878;SDS011;59755;43.834;4.364;2022-07-29T12:55:37;7.90;;;4.53;;
71878;SDS011;59755;43.834;4.364;2022-07-29T12:58:03;6.25;;;4.13;;
71878;SDS011;59755;43.834;4.364;2022-07-29T13:00:29;6.95;;;3.88;;
71878;SDS011;59755;43.834;4.364;2022-07-29T13:02:56;6.70;;;4.40;;
71878;SDS011;59755;43.834;4.364;2022-07-29T13:05:22;6.28;;;4.00;;
71878;SDS011;59755;43.834;4.364;2022-07-29T13:07:49;5.97;;;4.00;;
71878;SDS011;59755;43.834;4.364;2022-07-29T13:15:26;6.07;;;3.97;;
71878;SDS011;59755;43.834;4.364;2022-07-29T13:17:52;6.63;;;3.58;;
71878;SDS011;59755;43.834;4.364;2022-07-29T13:20:18;5.97;;;3.65;;
71878;SDS011;59755;43.834;4.364;2022-07-29T13:22:47;5.53;;;3.50;;
71878;SDS011;59755;43.834;4.364;2022-07-29T13:25:13;6.75;;;3.25;;
71878;SDS011;59755;43.834;4.364;2022-07-29T13:27:39;6.82;;;3.45;;
71878;SDS011;59755;43.834;4.364;2022-07-29T13:30:06;6.88;;;3.95;;
71878;SDS011;59755;43.834;4.364;2022-07-29T13:32:33;5.55;;;3.40;;
71878;SDS011;59755;43.834;4.364;2022-07-29T13:35:00;6.07;;;3.40;;
71878;SDS011;59755;43.834;4.364;2022-07-29T13:37:27;6.68;;;3.72;;
71878;SDS011;59755;43.834;4.364;2022-07-29T13:39:54;6.07;;;3.72;;
71878;SDS011;59755;43.834;4.364;2022-07-29T13:42:21;6.88;;;3.70;;
71878;SDS011;59755;43.834;4.364;2022-07-29T13:44:51;5.45;;;3.53;;
71878;SDS011;59755;43.834;4.364;2022-07-29T13:47:17;5.53;;;3.50;;
71878;SDS011;59755;43.834;4.364;2022-07-29T13:49:43;5.78;;;3.40;;
71878;SDS011;59755;43.834;4.364;2022-07-29T13:52:09;7.20;;;3.33;;
71878;SDS011;59755;43.834;4.364;2022-07-29T13:54:36;6.60;;;3.50;;
71878;SDS011;59755;43.834;4.364;2022-07-29T13:57:06;6.18;;;3.40;;
71878;SDS011;59755;43.834;4.364;2022-07-29T13:59:32;6.45;;;3.22;;
71878;SDS011;59755;43.834;4.364;2022-07-29T14:01:58;5.95;;;3.55;;
71878;SDS011;59755;43.834;4.364;2022-07-29T14:04:24;5.68;;;3.28;;
71878;SDS011;59755;43.834;4.364;2022-07-29T14:06:50;5.25;;;3.33;;
71878;SDS011;59755;43.834;4.364;2022-07-29T14:09:17;6.28;;;3.53;;
71878;SDS011;59755;43.834;4.364;2022-07-29T14:11:43;6.20;;;2.92;;
71878;SDS011;59755;43.834;4.364;2022-07-29T14:14:10;6.18;;;3.33;;
71878;SDS011;59755;43.834;4.364;2022-07-29T14:16:37;5.68;;;3.30;;
71878;SDS011;59755;43.834;4.364;2022-07-29T14:19:03;5.72;;;3.47;;
71878;SDS011;59755;43.834;4.364;2022-07-29T14:21:29;5.30;;;3.20;;
71878;SDS011;59755;43.834;4.364;2022-07-29T14:23:55;5.97;;;3.22;;
71878;SDS011;59755;43.834;4.364;2022-07-29T14:26:21;5.40;;;2.97;;
71878;SDS011;59755;43.834;4.364;2022-07-29T14:28:48;6.60;;;3.10;;
71878;SDS011;59755;43.834;4.364;2022-07-29T14:31:14;5.78;;;3.20;;
71878;SDS011;59755;43.834;4.364;2022-07-29T14:33:40;5.53;;;3.20;;
71878;SDS011;59755;43.834;4.364;2022-07-29T14:36:07;5.38;;;2.90;;
71878;SDS011;59755;43.834;4.364;2022-07-29T14:38:34;5.82;;;2.90;;
71878;SDS011;59755;43.834;4.364;2022-07-29T14:41:00;5.13;;;2.90;;
71878;SDS011;59755;43.834;4.364;2022-07-29T14:43:26;5.10;;;2.90;;
71878;SDS011;59755;43.834;4.364;2022-07-29T14:45:52;6.25;;;3.00;;
71878;SDS011;59755;43.834;4.364;2022-07-29T14:48:18;5.13;;;3.08;;
71878;SDS011;59755;43.834;4.364;2022-07-29T14:50:44;5.32;;;2.90;;
71878;SDS011;59755;43.834;4.364;2022-07-29T14:53:10;4.97;;;2.80;;
71878;SDS011;59755;43.834;4.364;2022-07-29T14:55:39;5.13;;;2.90;;
71878;SDS011;59755;43.834;4.364;2022-07-29T14:58:07;6.93;;;3.15;;
71878;SDS011;59755;43.834;4.364;2022-07-29T15:00:33;6.25;;;3.20;;
71878;SDS011;59755;43.834;4.364;2022-07-29T15:03:00;5.30;;;3.03;;
71878;SDS011;59755;43.834;4.364;2022-07-29T15:05:27;5.63;;;2.80;;
71878;SDS011;59755;43.834;4.364;2022-07-29T15:07:53;6.22;;;3.03;;
71878;SDS011;59755;43.834;4.364;2022-07-29T15:10:19;5.15;;;3.00;;
71878;SDS011;59755;43.834;4.364;2022-07-29T15:12:45;6.43;;;3.67;;
71878;SDS011;59755;43.834;4.364;2022-07-29T15:15:11;5.85;;;2.90;;
71878;SDS011;59755;43.834;4.364;2022-07-29T15:17:37;5.75;;;3.00;;
71878;SDS011;59755;43.834;4.364;2022-07-29T15:20:03;5.95;;;2.85;;
71878;SDS011;59755;43.834;4.364;2022-07-29T15:22:30;5.75;;;3.25;;
71878;SDS011;59755;43.834;4.364;2022-07-29T15:24:56;5.43;;;3.20;;
71878;SDS011;59755;43.834;4.364;2022-07-29T15:27:22;5.68;;;3.35;;
71878;SDS011;59755;43.834;4.364;2022-07-29T15:29:48;6.45;;;3.22;;
71878;SDS011;59755;43.834;4.364;2022-07-29T15:32:14;6.93;;;3.28;;